Time;durP1;ratioP1;P1;durP2;ratioP2;P2;SDS_P1;SDS_P2;PMS_P1;PMS_P2;Temp;Humidity;BMP_temperature;BMP_pressure;BME280_temperature;BME280_humidity;BME280_pressure;Samples;Min_cycle;Max_cycle;Signal;HPM_P1;HPM_P2
2024/01/29 00:01:09;;;;;;;9.67;6.17;;;;;;;1.17;100.00;99438.16;5055904;28;20204;-78
2024/01/29 00:03:36;;;;;;;11.07;6.93;;;;;;;1.12;100.00;99442.56;5055149;28;20214;-78
2024/01/29 00:06:02;;;;;;;9.13;6.90;;;;;;;1.08;100.00;99443.50;5054530;28;20216;-78
2024/01/29 00:08:30;;;;;;;10.27;7.33;;;;;;;1.07;100.00;99441.78;5053749;28;20212;-78
2024/01/29 00:10:57;;;;;;;9.70;6.10;;;;;;;1.08;100.00;99438.28;5053061;28;20216;-78
2024/01/29 00:13:23;;;;;;;9.53;7.17;;;;;;;1.12;100.00;99450.38;5053427;28;20208;-78
2024/01/29 00:15:50;;;;;;;10.20;7.03;;;;;;;1.09;100.00;99445.22;5053544;28;20291;-78
2024/01/29 00:18:16;;;;;;;9.20;6.67;;;;;;;1.11;100.00;99445.19;5053517;28;20232;-78
2024/01/29 00:20:42;;;;;;;10.77;7.13;;;;;;;1.10;100.00;99452.13;5053963;28;20331;-78
2024/01/29 00:23:09;;;;;;;10.10;7.07;;;;;;;1.10;100.00;99452.13;5053807;28;20552;-77
2024/01/29 00:25:37;;;;;;;11.47;7.50;;;;;;;1.13;100.00;99446.91;5053422;28;20215;-78
2024/01/29 00:28:04;;;;;;;9.93;6.93;;;;;;;1.07;100.00;99446.97;5052900;28;20208;-78
2024/01/29 00:30:31;;;;;;;8.73;6.20;;;;;;;1.03;100.00;99444.41;5053077;28;20322;-78
2024/01/29 00:32:57;;;;;;;9.70;7.20;;;;;;;0.98;100.00;99447.06;5053410;28;20690;-78
2024/01/29 00:35:24;;;;;;;10.87;7.40;;;;;;;0.95;100.00;99444.50;5053559;28;20217;-78
2024/01/29 00:37:50;;;;;;;11.67;7.40;;;;;;;0.98;100.00;99441.84;5052767;28;20725;-78
2024/01/29 00:40:17;;;;;;;9.77;6.43;;;;;;;0.95;100.00;99436.69;5054233;28;20297;-78
2024/01/29 00:42:45;;;;;;;10.10;7.30;;;;;;;0.94;100.00;99432.38;5053725;28;20244;-78
2024/01/29 00:45:12;;;;;;;7.90;6.50;;;;;;;0.86;100.00;99447.19;5053486;28;20215;-78
2024/01/29 00:47:38;;;;;;;12.37;7.97;;;;;;;0.86;100.00;99436.78;5051603;28;20206;-78
2024/01/29 00:50:06;;;;;;;10.80;6.77;;;;;;;0.87;100.00;99428.09;5053241;28;20239;-78
2024/01/29 00:52:33;;;;;;;11.10;8.07;;;;;;;0.88;100.00;99434.16;5053393;28;20270;-78
2024/01/29 00:55:00;;;;;;;11.30;7.23;;;;;;;0.81;100.00;99430.75;5053106;28;20291;-77
2024/01/29 00:57:27;;;;;;;12.60;7.70;;;;;;;0.79;100.00;99435.13;5052311;28;20281;-77
2024/01/29 00:59:55;;;;;;;10.23;6.37;;;;;;;0.77;100.00;99430.81;5053068;28;20684;-77
2024/01/29 01:02:22;;;;;;;8.97;6.83;;;;;;;0.71;100.00;99434.34;5053111;28;20227;-77
2024/01/29 01:04:48;;;;;;;12.43;7.70;;;;;;;0.69;100.00;99441.28;5054025;28;20209;-77
2024/01/29 01:07:15;;;;;;;9.43;6.90;;;;;;;0.69;100.00;99438.66;5053628;28;20202;-78
2024/01/29 01:09:41;;;;;;;13.03;7.80;;;;;;;0.70;100.00;99435.22;5053490;28;20205;-78
2024/01/29 01:12:08;;;;;;;11.60;7.10;;;;;;;0.66;100.00;99432.63;5054245;28;20322;-78
2024/01/29 01:14:34;;;;;;;14.20;7.60;;;;;;;0.64;100.00;99440.47;5053951;28;20229;-78
2024/01/29 01:17:03;;;;;;;10.33;7.43;;;;;;;0.62;100.00;99434.41;5053344;28;20226;-78
2024/01/29 01:19:29;;;;;;;9.03;6.93;;;;;;;0.60;100.00;99433.56;5055180;28;20242;-78
2024/01/29 01:21:56;;;;;;;12.17;7.77;;;;;;;0.60;100.00;99437.91;5058290;28;20229;-78
2024/01/29 01:24:22;;;;;;;10.43;7.40;;;;;;;0.56;100.00;99439.66;5058389;28;20625;-78
2024/01/29 01:26:49;;;;;;;8.93;6.43;;;;;;;0.53;100.00;99437.09;5057605;28;20207;-78
2024/01/29 01:29:15;;;;;;;11.47;7.27;;;;;;;0.51;100.00;99441.44;5058310;28;20230;-78
2024/01/29 01:31:42;;;;;;;10.53;7.23;;;;;;;0.49;100.00;99440.59;5058039;28;20239;-78
2024/01/29 01:34:10;;;;;;;12.80;7.90;;;;;;;0.50;100.00;99437.13;5058501;28;20212;-78
2024/01/29 01:36:36;;;;;;;12.03;7.23;;;;;;;0.42;100.00;99446.72;5057804;28;20208;-78
2024/01/29 01:39:03;;;;;;;9.37;7.40;;;;;;;0.30;100.00;99443.34;5057955;28;20235;-78
2024/01/29 01:41:30;;;;;;;9.23;7.17;;;;;;;0.21;100.00;99436.53;5057913;28;20289;-78
2024/01/29 01:43:56;;;;;;;10.97;8.40;;;;;;;0.20;100.00;99441.72;5057593;28;20200;-79
2024/01/29 01:46:24;;;;;;;11.30;7.57;;;;;;;0.22;100.00;99430.44;5058045;28;20247;-78
2024/01/29 01:48:51;;;;;;;11.27;7.20;;;;;;;0.23;100.00;99437.34;5058057;28;20293;-78
2024/01/29 01:51:20;;;;;;;10.67;8.00;;;;;;;0.25;100.00;99435.59;5056720;28;20250;-78
2024/01/29 01:53:47;;;;;;;11.90;7.57;;;;;;;0.24;100.00;99435.59;5057223;28;20219;-78
2024/01/29 01:56:15;;;;;;;11.37;7.33;;;;;;;0.20;100.00;99442.56;5057719;28;20215;-78
2024/01/29 01:58:42;;;;;;;9.70;7.30;;;;;;;0.16;100.00;99435.69;5056044;28;20608;-78
2024/01/29 02:01:08;;;;;;;11.87;7.73;;;;;;;0.16;100.00;99438.28;5055239;28;20210;-78
2024/01/29 02:03:35;;;;;;;12.37;7.80;;;;;;;0.13;100.00;99440.88;5055352;28;20473;-78
2024/01/29 02:06:02;;;;;;;11.83;8.20;;;;;;;0.11;100.00;99442.66;5056584;28;20693;-78
2024/01/29 02:08:31;;;;;;;12.87;8.30;;;;;;;0.12;100.00;99441.78;5056227;28;20844;-78
2024/01/29 02:10:59;;;;;;;14.60;7.80;;;;;;;0.11;100.00;99437.44;5056856;28;20405;-78
2024/01/29 02:13:25;;;;;;;11.67;8.40;;;;;;;0.13;100.00;99432.25;5056905;28;20258;-78
2024/01/29 02:15:52;;;;;;;13.20;8.40;;;;;;;0.15;100.00;99433.97;5056496;28;20586;-78
2024/01/29 02:18:18;;;;;;;11.70;8.87;;;;;;;0.13;100.00;99430.50;5055363;28;20239;-78
2024/01/29 02:20:45;;;;;;;12.10;8.27;;;;;;;0.14;100.00;99429.63;5055627;28;20216;-78
2024/01/29 02:23:13;;;;;;;13.30;8.47;;;;;;;0.13;100.00;99430.50;5056104;28;20228;-78
2024/01/29 02:25:39;;;;;;;12.23;7.93;;;;;;;0.15;100.00;99433.09;5055920;28;20210;-78
2024/01/29 02:28:06;;;;;;;11.77;8.90;;;;;;;0.20;100.00;99431.31;5055389;28;20295;-78
2024/01/29 02:30:33;;;;;;;13.50;8.47;;;;;;;0.18;100.00;99428.72;5054458;28;20220;-78
2024/01/29 02:32:59;;;;;;;11.70;8.67;;;;;;;0.19;100.00;99433.06;5055070;28;20259;-78
2024/01/29 02:35:25;;;;;;;13.33;8.47;;;;;;;0.25;100.00;99437.34;5055389;28;20253;-78
2024/01/29 02:37:52;;;;;;;11.67;8.10;;;;;;;0.21;100.00;99439.13;5055014;28;20228;-78
2024/01/29 02:40:20;;;;;;;11.67;8.53;;;;;;;0.25;100.00;99435.59;5055857;28;20235;-78
2024/01/29 02:42:46;;;;;;;11.67;7.67;;;;;;;0.22;100.00;99429.56;5055464;28;20232;-78
2024/01/29 02:45:13;;;;;;;11.60;7.27;;;;;;;0.18;100.00;99428.72;5055419;28;20212;-78
2024/01/29 02:47:39;;;;;;;12.73;8.63;;;;;;;0.14;100.00;99432.22;5054651;28;20207;-77
2024/01/29 02:50:06;;;;;;;13.23;9.47;;;;;;;0.10;100.00;99425.34;5054607;28;20590;-78
2024/01/29 02:52:33;;;;;;;13.27;8.77;;;;;;;0.03;100.00;99425.38;5054583;28;20235;-78
2024/01/29 02:54:59;;;;;;;13.83;8.43;;;;;;;-0.04;100.00;99431.50;5054704;28;20212;-78
2024/01/29 02:57:27;;;;;;;11.80;8.17;;;;;;;-0.10;100.00;99422.00;5054179;28;20208;-78
2024/01/29 02:59:54;;;;;;;13.00;8.47;;;;;;;-0.13;100.00;99428.09;5055811;28;20640;-78
2024/01/29 03:02:20;;;;;;;12.13;8.17;;;;;;;-0.19;100.00;99425.53;5054405;28;20237;-77
2024/01/29 03:04:47;;;;;;;15.20;9.17;;;;;;;-0.18;100.00;99427.25;5054316;28;20212;-77
2024/01/29 03:07:13;;;;;;;12.80;8.87;;;;;;;-0.17;100.00;99418.59;5053717;28;20231;-78
2024/01/29 03:09:40;;;;;;;13.73;8.40;;;;;;;-0.19;100.00;99435.94;5054112;28;20204;-78
2024/01/29 03:12:08;;;;;;;14.63;8.93;;;;;;;-0.10;100.00;99424.59;5054207;28;20255;-78
2024/01/29 03:14:36;;;;;;;14.20;8.83;;;;;;;-0.13;100.00;99431.53;5054305;28;20282;-78
2024/01/29 03:17:02;;;;;;;13.57;9.17;;;;;;;-0.11;100.00;99425.47;5053529;28;20213;-78
2024/01/29 03:19:29;;;;;;;15.53;9.63;;;;;;;-0.10;100.00;99422.00;5053865;28;20228;-77
2024/01/29 03:21:55;;;;;;;12.47;8.67;;;;;;;-0.12;100.00;99422.91;5054121;28;20240;-77
2024/01/29 03:24:22;;;;;;;13.20;8.80;;;;;;;-0.15;100.00;99430.69;5053918;28;20204;-78
2024/01/29 03:26:48;;;;;;;13.03;9.00;;;;;;;-0.18;100.00;99432.47;5053233;28;20546;-78
2024/01/29 03:29:15;;;;;;;13.40;9.07;;;;;;;-0.18;100.00;99429.84;5054042;28;20216;-78
2024/01/29 03:31:42;;;;;;;12.77;9.27;;;;;;;-0.22;100.00;99422.06;5053501;28;20244;-78
2024/01/29 03:34:09;;;;;;;13.83;9.17;;;;;;;-0.22;100.00;99425.53;5053528;28;20214;-78
2024/01/29 03:36:35;;;;;;;14.93;8.63;;;;;;;-0.21;100.00;99428.16;5056020;28;20697;-79
2024/01/29 03:39:03;;;;;;;13.60;8.63;;;;;;;-0.20;100.00;99423.81;5059152;28;20237;-78
2024/01/29 03:41:29;;;;;;;14.50;8.97;;;;;;;-0.16;100.00;99428.97;5058793;28;20290;-78
2024/01/29 03:43:56;;;;;;;11.93;8.37;;;;;;;-0.14;100.00;99423.78;5057998;28;20212;-78
2024/01/29 03:46:22;;;;;;;12.67;8.30;;;;;;;-0.13;100.00;99422.91;5059812;28;20204;-78
2024/01/29 03:48:50;;;;;;;13.13;8.87;;;;;;;-0.14;100.00;99428.97;5058336;28;20207;-78
2024/01/29 03:51:16;;;;;;;12.90;8.37;;;;;;;-0.15;100.00;99433.31;5058581;28;20228;-78
2024/01/29 03:53:43;;;;;;;11.37;8.37;;;;;;;-0.17;100.00;99425.50;5059564;28;20766;-79
2024/01/29 03:56:09;;;;;;;13.53;8.97;;;;;;;-0.17;100.00;99422.91;5059393;28;20211;-79
2024/01/29 03:58:36;;;;;;;12.63;8.57;;;;;;;-0.15;100.00;99428.09;5057853;28;20237;-78
2024/01/29 04:01:03;;;;;;;12.53;8.70;;;;;;;-0.13;100.00;99427.22;5058557;28;20211;-78
2024/01/29 04:03:29;;;;;;;10.80;7.63;;;;;;;-0.12;100.00;99430.69;5060393;28;20219;-78
2024/01/29 04:05:57;;;;;;;13.67;8.60;;;;;;;-0.14;100.00;99428.97;5063044;28;20234;-78
2024/01/29 04:08:23;;;;;;;11.10;7.63;;;;;;;-0.16;100.00;99424.63;5065719;28;20210;-78
2024/01/29 04:10:50;;;;;;;10.83;7.33;;;;;;;-0.16;100.00;99416.00;5065143;28;20215;-78
2024/01/29 04:13:17;;;;;;;13.43;7.60;;;;;;;-0.18;100.00;99422.94;5065429;28;20232;-78
2024/01/29 04:15:43;;;;;;;12.93;8.30;;;;;;;-0.19;100.00;99425.53;5064658;28;20214;-78
2024/01/29 04:18:10;;;;;;;11.80;8.53;;;;;;;-0.20;100.00;99416.88;5063462;28;20232;-78
2024/01/29 04:20:36;;;;;;;14.07;9.17;;;;;;;-0.22;100.00;99422.06;5060804;28;20200;-78
2024/01/29 04:23:04;;;;;;;12.57;8.17;;;;;;;-0.20;100.00;99419.47;5061009;28;20231;-78
2024/01/29 04:25:31;;;;;;;11.33;8.00;;;;;;;-0.20;100.00;99429.03;5062280;28;20212;-78
2024/01/29 04:27:57;;;;;;;12.30;8.10;;;;;;;-0.23;100.00;99427.31;5065291;28;20201;-79
2024/01/29 04:30:24;;;;;;;10.97;7.63;;;;;;;-0.24;100.00;99427.31;5065597;28;20222;-78
2024/01/29 04:32:50;;;;;;;12.53;8.03;;;;;;;-0.22;100.00;99420.34;5064739;28;20237;-78
2024/01/29 04:35:17;;;;;;;12.67;7.40;;;;;;;-0.24;100.00;99416.91;5065493;28;20208;-79
2024/01/29 04:37:43;;;;;;;11.63;8.17;;;;;;;-0.21;100.00;99428.16;5064947;28;20206;-78
2024/01/29 04:40:12;;;;;;;11.47;7.87;;;;;;;-0.27;100.00;99425.56;5064960;28;20295;-79
2024/01/29 04:42:38;;;;;;;11.10;8.13;;;;;;;-0.24;100.00;99433.38;5062821;28;20228;-79
2024/01/29 04:45:07;;;;;;;12.23;7.77;;;;;;;-0.28;100.00;99437.69;5061833;28;20217;-78
2024/01/29 04:47:33;;;;;;;11.50;7.47;;;;;;;-0.26;100.00;99439.44;5057555;28;20205;-78
2024/01/29 04:50:00;;;;;;;12.87;8.20;;;;;;;-0.22;100.00;99427.25;5057611;28;20307;-78
2024/01/29 04:52:26;;;;;;;11.70;8.13;;;;;;;-0.22;100.00;99437.66;5054334;28;20227;-78
2024/01/29 04:54:53;;;;;;;14.70;8.73;;;;;;;-0.13;100.00;99435.91;5053875;28;20208;-79
2024/01/29 04:57:22;;;;;;;10.50;7.13;;;;;;;-0.11;100.00;99435.84;5054189;28;20235;-78
2024/01/29 04:59:49;;;;;;;11.97;7.70;;;;;;;-0.08;100.00;99428.94;5054393;28;20706;-78
2024/01/29 05:02:16;;;;;;;13.13;7.90;;;;;;;-0.12;100.00;99428.09;5054214;28;20232;-78
2024/01/29 05:04:42;;;;;;;12.33;7.87;;;;;;;-0.09;100.00;99422.88;5053876;28;20231;-78
2024/01/29 05:07:09;;;;;;;11.63;7.80;;;;;;;-0.02;100.00;99430.63;5053745;28;20220;-78
2024/01/29 05:09:35;;;;;;;12.00;7.60;;;;;;;-0.04;100.00;99432.34;5054430;28;20205;-77
2024/01/29 05:12:02;;;;;;;13.23;7.33;;;;;;;-0.04;100.00;99426.31;5054716;28;20245;-77
2024/01/29 05:14:30;;;;;;;13.30;7.50;;;;;;;-0.06;100.00;99441.06;5054703;28;20263;-78
2024/01/29 05:16:56;;;;;;;11.40;7.23;;;;;;;-0.02;100.00;99446.22;5054129;28;20217;-78
2024/01/29 05:19:23;;;;;;;13.27;7.47;;;;;;;-0.03;100.00;99441.00;5054437;28;20227;-78
2024/01/29 05:21:49;;;;;;;11.50;7.30;;;;;;;0.00;100.00;99444.44;5054218;28;20315;-78
2024/01/29 05:24:16;;;;;;;11.20;7.10;;;;;;;-0.01;100.00;99437.53;5054162;28;20216;-79
2024/01/29 05:26:42;;;;;;;10.63;7.00;;;;;;;-0.05;100.00;99446.22;5053753;28;20216;-78
2024/01/29 05:29:09;;;;;;;11.23;7.43;;;;;;;-0.15;100.00;99448.88;5054431;28;20231;-78
2024/01/29 05:31:37;;;;;;;10.60;7.33;;;;;;;-0.13;100.00;99451.47;5054182;28;20582;-78
2024/01/29 05:34:03;;;;;;;13.60;7.77;;;;;;;-0.16;100.00;99452.38;5053772;28;20204;-78
2024/01/29 05:36:30;;;;;;;12.70;7.70;;;;;;;-0.12;100.00;99454.09;5051962;28;20204;-78
2024/01/29 05:38:56;;;;;;;10.33;7.77;;;;;;;-0.04;100.00;99454.88;5054778;28;20248;-78
2024/01/29 05:41:22;;;;;;;10.60;7.10;;;;;;;-0.03;100.00;99448.81;5056094;28;20239;-78
2024/01/29 05:43:49;;;;;;;14.80;7.30;;;;;;;-0.01;100.00;99447.06;5054379;28;20225;-78
2024/01/29 05:46:15;;;;;;;11.43;7.83;;;;;;;0.03;100.00;99447.06;5053447;28;20683;-78
2024/01/29 05:48:43;;;;;;;10.43;7.60;;;;;;;0.07;100.00;99445.28;5052808;28;20200;-77
2024/01/29 05:51:10;;;;;;;12.23;7.33;;;;;;;0.16;100.00;99456.47;5053728;28;20216;-78
2024/01/29 05:53:36;;;;;;;11.03;7.30;;;;;;;0.15;100.00;99459.97;5053471;28;20209;-77
2024/01/29 05:56:05;;;;;;;12.27;8.00;;;;;;;0.09;100.00;99460.00;5053674;28;20215;-78
2024/01/29 05:58:33;;;;;;;13.47;7.60;;;;;;;0.12;100.00;99459.97;5053217;28;20235;-78
2024/01/29 06:01:00;;;;;;;10.63;7.03;;;;;;;0.12;100.00;99459.09;5053811;28;20209;-77
2024/01/29 06:03:26;;;;;;;8.67;6.70;;;;;;;0.08;100.00;99463.44;5053299;28;20209;-78
2024/01/29 06:05:54;;;;;;;11.80;7.40;;;;;;;0.07;100.00;99466.94;5054733;28;20667;-77
2024/01/29 06:08:20;;;;;;;9.10;6.87;;;;;;;0.06;100.00;99465.22;5056726;28;20206;-78
2024/01/29 06:10:47;;;;;;;8.50;7.00;;;;;;;0.03;100.00;99460.03;5061005;28;20215;-79
2024/01/29 06:13:14;;;;;;;12.43;7.87;;;;;;;0.03;100.00;99454.84;5061501;28;20231;-78
2024/01/29 06:15:40;;;;;;;9.83;7.33;;;;;;;0.02;100.00;99460.03;5061644;28;20212;-78
2024/01/29 06:18:07;;;;;;;12.33;7.33;;;;;;;0.00;100.00;99462.66;5061075;28;20218;-78
2024/01/29 06:20:33;;;;;;;11.77;7.27;;;;;;;-0.02;100.00;99469.59;5060869;28;20232;-78
2024/01/29 06:23:01;;;;;;;12.27;7.27;;;;;;;-0.07;100.00;99473.97;5062993;28;20225;-78
2024/01/29 06:25:27;;;;;;;9.97;6.97;;;;;;;-0.08;100.00;99465.31;5062337;28;20213;-78
2024/01/29 06:27:54;;;;;;;10.07;7.47;;;;;;;-0.11;100.00;99461.84;5060629;28;20239;-79
2024/01/29 06:30:20;;;;;;;9.23;7.03;;;;;;;-0.12;100.00;99465.31;5060912;28;20212;-79
2024/01/29 06:32:47;;;;;;;9.50;7.03;;;;;;;-0.17;100.00;99462.75;5060770;28;20691;-79
2024/01/29 06:35:13;;;;;;;11.20;7.90;;;;;;;-0.17;100.00;99460.16;5060578;28;20213;-79
2024/01/29 06:37:40;;;;;;;9.77;7.37;;;;;;;-0.16;100.00;99468.78;5060448;28;20211;-80
2024/01/29 06:40:09;;;;;;;11.13;7.70;;;;;;;-0.18;100.00;99463.63;5061102;28;20336;-78
2024/01/29 06:42:35;;;;;;;9.60;6.93;;;;;;;-0.18;100.00;99468.84;5060116;28;20236;-80
2024/01/29 06:45:04;;;;;;;10.40;6.80;;;;;;;-0.22;100.00;99467.97;5056277;28;20502;-80
2024/01/29 06:47:31;;;;;;;10.93;7.57;;;;;;;-0.28;100.00;99463.66;5057699;28;20208;-80
2024/01/29 06:49:58;;;;;;;10.47;7.40;;;;;;;-0.29;100.00;99473.22;5061247;28;20206;-80
2024/01/29 06:52:25;;;;;;;13.97;7.50;;;;;;;-0.22;100.00;99472.31;5059499;28;20313;-79
2024/01/29 06:54:52;;;;;;;11.60;7.43;;;;;;;-0.19;100.00;99470.56;5058483;28;20215;-79
2024/01/29 06:57:20;;;;;;;13.73;7.83;;;;;;;-0.20;100.00;99470.59;5060222;28;20208;-79
2024/01/29 06:59:46;;;;;;;11.97;7.53;;;;;;;-0.17;100.00;99472.28;5061042;28;20234;-79
2024/01/29 07:02:13;;;;;;;9.40;6.30;;;;;;;-0.16;100.00;99471.41;5060909;28;20242;-79
2024/01/29 07:04:42;;;;;;;10.13;7.43;;;;;;;-0.13;100.00;99477.47;5060806;28;20216;-79
2024/01/29 07:07:08;;;;;;;10.07;7.47;;;;;;;-0.13;100.00;99478.31;5060150;28;20204;-80
2024/01/29 07:09:34;;;;;;;11.03;6.90;;;;;;;-0.17;100.00;99475.75;5061773;28;20206;-79
2024/01/29 07:12:01;;;;;;;8.03;6.23;;;;;;;-0.20;100.00;99476.63;5061176;28;20231;-79
2024/01/29 07:14:29;;;;;;;11.97;7.23;;;;;;;-0.13;100.00;99486.97;5060195;28;20214;-79
2024/01/29 07:16:56;;;;;;;11.00;7.03;;;;;;;-0.08;100.00;99498.22;5059265;28;20242;-79
2024/01/29 07:19:25;;;;;;;12.50;7.83;;;;;;;-0.07;100.00;99489.56;5059312;28;20684;-80
2024/01/29 07:21:52;;;;;;;14.00;7.83;;;;;;;-0.03;100.00;99498.19;5054578;28;20323;-79
2024/01/29 07:24:18;;;;;;;10.43;7.00;;;;;;;0.02;100.00;99499.88;5054477;28;20644;-79
2024/01/29 07:26:46;;;;;;;8.70;7.03;;;;;;;0.06;100.00;99496.41;5054126;28;20212;-80
2024/01/29 07:29:12;;;;;;;13.30;7.73;;;;;;;0.13;100.00;99499.84;5054534;28;20205;-80
2024/01/29 07:31:40;;;;;;;11.30;7.93;;;;;;;0.20;100.00;99499.75;5054721;28;20239;-80
2024/01/29 07:34:07;;;;;;;9.83;7.30;;;;;;;0.37;100.00;99503.13;5054805;28;20219;-78
2024/01/29 07:36:33;;;;;;;10.13;7.50;;;;;;;0.42;100.00;99511.75;5056196;28;20227;-79
2024/01/29 07:39:00;;;;;;;11.27;7.43;;;;;;;0.48;100.00;99509.09;5055963;28;20238;-79
2024/01/29 07:41:26;;;;;;;9.73;8.00;;;;;;;0.59;100.00;99509.88;5054916;28;20235;-79
2024/01/29 07:43:53;;;;;;;10.17;7.30;;;;;;;0.64;100.00;99509.84;5054596;28;20697;-79
2024/01/29 07:46:19;;;;;;;10.83;7.80;;;;;;;0.72;100.00;99501.09;5054073;28;20216;-79
2024/01/29 07:48:47;;;;;;;10.97;7.30;;;;;;;0.76;100.00;99513.22;5053673;28;20274;-79
2024/01/29 07:51:14;;;;;;;9.57;7.20;;;;;;;0.85;100.00;99507.91;5053984;28;20236;-79
2024/01/29 07:53:40;;;;;;;14.13;7.47;;;;;;;0.93;100.00;99503.50;5054206;28;20215;-79
2024/01/29 07:56:07;;;;;;;15.63;7.33;;;;;;;1.02;100.00;99508.63;5054039;28;20699;-79
2024/01/29 07:58:33;;;;;;;13.23;7.73;;;;;;;1.03;100.00;99507.75;5053231;28;20220;-81
2024/01/29 08:01:00;;;;;;;11.07;7.47;;;;;;;1.09;100.00;99505.09;5052432;28;20235;-79
2024/01/29 08:03:26;;;;;;;9.10;6.60;;;;;;;1.17;100.00;99511.06;5053750;28;20231;-77
2024/01/29 08:05:54;;;;;;;9.47;7.27;;;;;;;1.24;100.00;99510.13;5053111;28;20580;-79
2024/01/29 08:08:21;;;;;;;10.27;7.57;;;;;;;1.31;100.00;99504.00;5052412;28;20215;-78
2024/01/29 08:10:48;;;;;;;10.37;7.43;;;;;;;1.31;100.00;99518.75;5053696;28;20208;-78
2024/01/29 08:13:14;;;;;;;10.00;7.23;;;;;;;1.41;100.00;99504.75;5053481;28;20240;-79
2024/01/29 08:15:41;;;;;;;11.20;7.30;;;;;;;1.46;100.00;99509.03;5053089;28;20205;-78
2024/01/29 08:18:07;;;;;;;12.57;7.87;;;;;;;1.50;100.00;99518.53;5052622;28;20212;-79
2024/01/29 08:20:34;;;;;;;11.00;7.30;;;;;;;1.61;100.00;99523.63;5052988;28;20235;-79
2024/01/29 08:23:02;;;;;;;10.67;7.30;;;;;;;1.57;100.00;99522.78;5052744;28;20633;-79
2024/01/29 08:25:28;;;;;;;11.43;7.70;;;;;;;1.68;100.00;99526.13;5052912;28;20212;-78
2024/01/29 08:27:55;;;;;;;14.20;7.87;;;;;;;1.81;100.00;99527.72;5055552;28;20588;-79
2024/01/29 08:30:21;;;;;;;8.93;7.27;;;;;;;1.93;100.00;99531.91;5054812;28;20746;-79
2024/01/29 08:32:48;;;;;;;10.53;7.50;;;;;;;1.92;100.00;99528.44;5056326;28;20228;-79
2024/01/29 08:35:15;;;;;;;11.50;8.30;;;;;;;1.80;100.00;99533.81;5055527;28;20212;-77
2024/01/29 08:37:41;;;;;;;12.70;8.07;;;;;;;1.76;100.00;99534.72;5057281;28;20280;-79
2024/01/29 08:40:10;;;;;;;13.17;8.47;;;;;;;1.78;100.00;99538.16;5061554;28;20339;-78
2024/01/29 08:42:36;;;;;;;13.87;8.00;;;;;;;1.83;100.00;99540.72;5061052;28;20372;-79
2024/01/29 08:45:03;;;;;;;11.27;7.63;;;;;;;1.92;100.00;99533.66;5061878;28;20227;-79
2024/01/29 08:47:30;;;;;;;11.03;8.07;;;;;;;2.09;100.00;99531.66;5061626;28;20208;-79
2024/01/29 08:49:56;;;;;;;12.17;7.63;;;;;;;2.02;100.00;99532.63;5062299;28;20205;-78
2024/01/29 08:52:23;;;;;;;12.23;7.67;;;;;;;1.99;100.00;99535.31;5061602;28;20239;-79
2024/01/29 08:54:50;;;;;;;11.93;8.37;;;;;;;1.98;100.00;99538.78;5061542;28;20573;-79
2024/01/29 08:57:18;;;;;;;11.77;7.43;;;;;;;2.05;100.00;99537.81;5061562;28;20212;-79
2024/01/29 08:59:44;;;;;;;12.00;8.07;;;;;;;2.01;100.00;99541.34;5061947;28;20252;-79
2024/01/29 09:02:11;;;;;;;11.90;8.07;;;;;;;2.07;100.00;99545.59;5060080;28;20228;-79
2024/01/29 09:04:38;;;;;;;14.27;9.13;;;;;;;2.03;100.00;99550.00;5062096;28;20208;-79
2024/01/29 09:07:04;;;;;;;10.87;8.00;;;;;;;2.12;100.00;99549.03;5061301;28;20223;-79
2024/01/29 09:09:31;;;;;;;11.43;7.37;;;;;;;2.20;100.00;99557.63;5061512;28;20211;-79
2024/01/29 09:11:57;;;;;;;9.77;7.97;;;;;;;2.30;100.00;99549.66;5062132;28;20683;-79
2024/01/29 09:14:27;;;;;;;11.90;7.20;;;;;;;2.36;100.00;99549.56;5061744;28;20209;-79
2024/01/29 09:16:53;;;;;;;11.57;7.90;;;;;;;2.46;100.00;99540.69;5060958;28;20275;-79
2024/01/29 09:19:20;;;;;;;11.53;7.60;;;;;;;2.55;100.00;99545.78;5061055;28;20207;-80
2024/01/29 09:21:48;;;;;;;9.30;7.00;;;;;;;2.63;100.00;99543.91;5058387;28;20225;-81
2024/01/29 09:24:15;;;;;;;11.50;7.60;;;;;;;2.72;100.00;99551.63;5061818;28;20211;-79
2024/01/29 09:26:41;;;;;;;12.33;7.57;;;;;;;2.98;100.00;99551.19;5061510;28;20584;-79
2024/01/29 09:29:08;;;;;;;12.60;7.70;;;;;;;3.14;100.00;99543.09;5061884;28;20208;-79
2024/01/29 09:31:36;;;;;;;12.80;7.20;;;;;;;3.18;100.00;99547.34;5057759;28;20313;-79
2024/01/29 09:34:03;;;;;;;11.57;7.40;;;;;;;3.26;100.00;99537.66;5060016;28;20210;-79
2024/01/29 09:36:29;;;;;;;11.97;6.97;;;;;;;3.53;100.00;99550.19;5060617;28;20223;-81
2024/01/29 09:38:56;;;;;;;9.23;6.83;;;;;;;3.62;100.00;99530.84;5061377;28;20209;-80
2024/01/29 09:41:22;;;;;;;10.17;7.50;;;;;;;3.83;100.00;99531.28;5054754;28;20228;-78
2024/01/29 09:43:51;;;;;;;10.20;6.90;;;;;;;3.94;100.00;99529.31;5060380;28;20256;-76
2024/01/29 09:46:20;;;;;;;11.77;7.63;;;;;;;3.90;100.00;99530.28;5057308;28;20811;-79
2024/01/29 09:48:48;;;;;;;9.00;7.10;;;;;;;3.88;100.00;99534.69;5058557;28;20441;-79
2024/01/29 09:51:17;;;;;;;8.57;6.63;;;;;;;4.08;100.00;99536.84;5059575;28;20231;-80
2024/01/29 09:53:45;;;;;;;9.00;6.13;;;;;;;4.32;100.00;99536.31;5062288;28;20211;-80
2024/01/29 09:56:11;;;;;;;8.97;6.53;;;;;;;4.45;96.32;99512.47;5062859;28;20219;-80
2024/01/29 09:58:38;;;;;;;7.67;6.00;;;;;;;4.57;96.88;99527.91;5062330;28;20210;-80
2024/01/29 10:01:10;;;;;;;8.83;6.40;;;;;;;4.69;97.55;99532.84;5063478;28;20245;-80
2024/01/29 10:03:39;;;;;;;9.90;6.57;;;;;;;4.80;95.36;99524.72;5063936;28;20220;-80
2024/01/29 10:06:07;;;;;;;11.77;7.83;;;;;;;4.90;100.00;99548.03;5063663;28;20204;-82
2024/01/29 10:08:35;;;;;;;11.20;8.33;;;;;;;5.03;100.00;99565.19;5064337;28;20235;-80
2024/01/29 10:11:01;;;;;;;12.27;8.57;;;;;;;5.06;100.00;99562.50;5065615;28;20740;-80
2024/01/29 10:13:27;;;;;;;13.23;8.43;;;;;;;5.07;100.00;99561.59;5065795;28;20209;-80
2024/01/29 10:15:54;;;;;;;10.53;7.87;;;;;;;5.11;100.00;99563.25;5064848;28;20483;-80
2024/01/29 10:18:21;;;;;;;10.83;8.00;;;;;;;5.09;100.00;99557.19;5065782;28;20210;-80
2024/01/29 10:20:47;;;;;;;11.93;8.60;;;;;;;5.14;100.00;99563.16;5065305;28;20237;-80
2024/01/29 10:23:15;;;;;;;9.77;7.97;;;;;;;5.28;100.00;99561.06;5065575;28;20232;-81
2024/01/29 10:25:42;;;;;;;11.40;7.60;;;;;;;5.31;100.00;99560.97;5065408;28;20221;-80
2024/01/29 10:28:11;;;;;;;12.27;7.50;;;;;;;5.42;100.00;99545.81;5065505;28;20210;-80
2024/01/29 10:30:39;;;;;;;10.93;7.90;;;;;;;5.52;100.00;99536.81;5065903;28;20219;-80
2024/01/29 10:33:06;;;;;;;11.00;8.00;;;;;;;5.51;100.00;99535.06;5064126;28;20262;-80
2024/01/29 10:35:32;;;;;;;11.97;8.00;;;;;;;5.60;100.00;99540.09;5063566;28;20349;-80
2024/01/29 10:38:03;;;;;;;9.50;7.83;;;;;;;5.57;100.00;99537.53;5061217;28;20208;-80
2024/01/29 10:40:31;;;;;;;11.77;8.70;;;;;;;5.69;100.00;99537.19;5066394;28;20619;-80
2024/01/29 10:42:59;;;;;;;10.47;7.83;;;;;;;5.67;100.00;99539.03;5066637;28;20613;-81
2024/01/29 10:45:26;;;;;;;9.67;7.57;;;;;;;5.81;99.84;99533.44;5066111;28;20698;-80
2024/01/29 10:47:56;;;;;;;11.07;7.97;;;;;;;5.90;99.05;99538.41;5065628;28;20203;-80
2024/01/29 10:50:23;;;;;;;9.63;7.37;;;;;;;5.91;98.78;99537.50;5065890;28;20295;-80
2024/01/29 10:52:54;;;;;;;10.43;7.50;;;;;;;6.09;97.66;99527.34;5063791;28;20238;-80
2024/01/29 10:55:21;;;;;;;11.63;7.60;;;;;;;6.10;96.99;99517.72;5064925;28;20758;-80
2024/01/29 10:57:50;;;;;;;9.53;7.23;;;;;;;6.15;96.21;99510.53;5060840;28;20625;-79
2024/01/29 11:00:20;;;;;;;9.33;7.00;;;;;;;6.26;95.50;99504.09;5055691;28;20232;-80
2024/01/29 11:02:47;;;;;;;8.87;6.63;;;;;;;6.30;96.63;99510.94;5054585;28;20789;-79
2024/01/29 11:05:14;;;;;;;10.30;7.40;;;;;;;6.52;95.44;99508.50;5054956;28;20219;-79
2024/01/29 11:07:44;;;;;;;8.27;6.77;;;;;;;6.69;93.90;99499.22;5054459;28;20212;-80
2024/01/29 11:10:16;;;;;;;9.80;7.20;;;;;;;6.95;92.98;99486.06;5055104;28;20209;-79
2024/01/29 11:12:43;;;;;;;11.27;7.23;;;;;;;7.04;90.43;99475.25;5055000;28;20607;-79
2024/01/29 11:15:11;;;;;;;10.00;7.50;;;;;;;6.97;90.41;99478.13;5054933;28;20215;-82
2024/01/29 11:17:40;;;;;;;10.87;8.17;;;;;;;7.08;93.04;99495.25;5055707;28;20231;-80
2024/01/29 11:20:11;;;;;;;9.43;7.10;;;;;;;7.14;91.08;99479.28;5055202;28;20216;-79
2024/01/29 11:22:39;;;;;;;10.20;6.90;;;;;;;7.29;87.95;99468.25;5055033;28;20229;-77